EWG85P LROP-EDDS
Flight info
| Callsign | EWG85P |
|---|---|
| Flight time | 1h 50m |
| Altitude | 38000 |
| Route | SOKRU DCT ERUKO DCT MEDUD DCT EBORO DCT NALOX DCT INSAX DCT INGID DCT RTT Y703 MOGTI Q163 OLASO Z714 PELOG T126 REUTL REUTL1W |
| Aircraft | A320/M-SDE3FGHIRWY/LB1 |
Departure
| Time | 2026-05-05 14:02 |
|---|---|
| Airport | Bucharest Henri Coandă International Airport (LROP) |
Arrival
| Time | 2026-05-05 15:52 |
|---|---|
| Airport | Stuttgart Airport (EDDS) |
| Time | Latitude | Longitude | Altitude | Speed | Heading |
|---|---|---|---|---|---|
| 2026-05-05 13:17 | 44.57129 | 26.08006 | 323 ft | 0 kts | 174° |
| 2026-05-05 13:44 | 44.57130 | 26.08006 | 322 ft | 1 kts | 174° |
| 2026-05-05 13:44 | 44.57152 | 26.08003 | 322 ft | 4 kts | 174° |
| 2026-05-05 13:45 | 44.57177 | 26.07996 | 322 ft | 4 kts | 148° |
| 2026-05-05 13:45 | 44.57193 | 26.07971 | 322 ft | 4 kts | 97° |
| 2026-05-05 13:45 | 44.57193 | 26.07953 | 322 ft | 1 kts | 84° |
| 2026-05-05 13:45 | 44.57193 | 26.07951 | 322 ft | 0 kts | 84° |
| 2026-05-05 13:50 | 44.57193 | 26.07953 | 322 ft | 2 kts | 84° |
| 2026-05-05 13:51 | 44.57196 | 26.07986 | 322 ft | 3 kts | 84° |
| 2026-05-05 13:51 | 44.57198 | 26.08019 | 322 ft | 6 kts | 84° |
| 2026-05-05 13:51 | 44.57202 | 26.08073 | 322 ft | 5 kts | 84° |
| 2026-05-05 13:51 | 44.57207 | 26.08130 | 322 ft | 9 kts | 84° |
| 2026-05-05 13:52 | 44.57213 | 26.08215 | 322 ft | 8 kts | 84° |
| 2026-05-05 13:52 | 44.57218 | 26.08285 | 322 ft | 8 kts | 84° |
| 2026-05-05 13:52 | 44.57225 | 26.08372 | 322 ft | 9 kts | 84° |
| 2026-05-05 13:52 | 44.57230 | 26.08448 | 322 ft | 7 kts | 84° |
| 2026-05-05 13:53 | 44.57268 | 26.08499 | 322 ft | 8 kts | 359° |
| 2026-05-05 13:53 | 44.57328 | 26.08491 | 322 ft | 11 kts | 354° |
| 2026-05-05 13:53 | 44.57407 | 26.08480 | 322 ft | 11 kts | 354° |
| 2026-05-05 13:53 | 44.57473 | 26.08481 | 322 ft | 9 kts | 22° |
| 2026-05-05 13:54 | 44.57499 | 26.08582 | 322 ft | 14 kts | 83° |
| 2026-05-05 13:54 | 44.57509 | 26.08712 | 322 ft | 14 kts | 84° |
| 2026-05-05 13:54 | 44.57522 | 26.08875 | 322 ft | 19 kts | 83° |
| 2026-05-05 13:54 | 44.57536 | 26.09064 | 322 ft | 20 kts | 84° |
| 2026-05-05 13:55 | 44.57550 | 26.09257 | 322 ft | 20 kts | 84° |
| 2026-05-05 13:55 | 44.57565 | 26.09449 | 322 ft | 20 kts | 84° |
| 2026-05-05 13:55 | 44.57579 | 26.09646 | 322 ft | 21 kts | 84° |
| 2026-05-05 13:55 | 44.57593 | 26.09827 | 322 ft | 19 kts | 83° |
| 2026-05-05 13:56 | 44.57607 | 26.10008 | 322 ft | 19 kts | 84° |
| 2026-05-05 13:56 | 44.57621 | 26.10201 | 322 ft | 20 kts | 84° |
| 2026-05-05 13:56 | 44.57637 | 26.10404 | 322 ft | 22 kts | 84° |
| 2026-05-05 13:56 | 44.57652 | 26.10610 | 322 ft | 22 kts | 84° |
| 2026-05-05 13:57 | 44.57668 | 26.10825 | 322 ft | 23 kts | 84° |
| 2026-05-05 13:57 | 44.57686 | 26.11049 | 322 ft | 24 kts | 84° |
| 2026-05-05 13:57 | 44.57697 | 26.11203 | 322 ft | 24 kts | 84° |
| 2026-05-05 13:57 | 44.57714 | 26.11428 | 322 ft | 23 kts | 84° |
| 2026-05-05 13:58 | 44.57731 | 26.11654 | 322 ft | 23 kts | 84° |
| 2026-05-05 13:58 | 44.57746 | 26.11848 | 322 ft | 19 kts | 84° |
| 2026-05-05 13:58 | 44.57760 | 26.12035 | 322 ft | 20 kts | 84° |
| 2026-05-05 13:58 | 44.57774 | 26.12231 | 322 ft | 21 kts | 84° |
| 2026-05-05 13:59 | 44.57806 | 26.12657 | 322 ft | 23 kts | 84° |
| 2026-05-05 13:59 | 44.57820 | 26.12822 | 322 ft | 11 kts | 78° |
| 2026-05-05 14:00 | 44.57920 | 26.12823 | 322 ft | 9 kts | 322° |
| 2026-05-05 14:00 | 44.57976 | 26.12762 | 322 ft | 9 kts | 316° |
| 2026-05-05 14:00 | 44.57982 | 26.12689 | 322 ft | 3 kts | 264° |
| 2026-05-05 14:00 | 44.57982 | 26.12688 | 322 ft | 0 kts | 264° |
| 2026-05-05 14:01 | 44.57974 | 26.12567 | 323 ft | 43 kts | 264° |
| 2026-05-05 14:01 | 44.57917 | 26.11819 | 324 ft | 108 kts | 264° |
| 2026-05-05 14:01 | 44.57818 | 26.10527 | 322 ft | 157 kts | 264° |
| 2026-05-05 14:01 | 44.57706 | 26.08930 | 816 ft | 163 kts | 264° |
| 2026-05-05 14:02 | 44.57593 | 26.07341 | 1482 ft | 164 kts | 263° |
| 2026-05-05 14:02 | 44.57442 | 26.05660 | 1833 ft | 185 kts | 261° |
| 2026-05-05 14:02 | 44.57233 | 26.03797 | 2091 ft | 208 kts | 260° |
| 2026-05-05 14:02 | 44.57000 | 26.01631 | 2268 ft | 242 kts | 262° |
| 2026-05-05 14:03 | 44.56819 | 25.99190 | 2811 ft | 258 kts | 264° |
| 2026-05-05 14:03 | 44.56660 | 25.96648 | 3679 ft | 264 kts | 264° |
| 2026-05-05 14:03 | 44.56499 | 25.94064 | 4565 ft | 268 kts | 264° |
| 2026-05-05 14:03 | 44.56326 | 25.91441 | 5408 ft | 272 kts | 264° |
| 2026-05-05 14:04 | 44.56195 | 25.88772 | 6194 ft | 277 kts | 273° |
| 2026-05-05 14:04 | 44.56824 | 25.86233 | 6913 ft | 283 kts | 307° |
| 2026-05-05 14:04 | 44.58369 | 25.84544 | 7634 ft | 288 kts | 339° |
| 2026-05-05 14:04 | 44.60352 | 25.84267 | 8336 ft | 292 kts | 11° |
| 2026-05-05 14:05 | 44.62338 | 25.84959 | 9037 ft | 296 kts | 9° |
| 2026-05-05 14:05 | 44.64348 | 25.84774 | 9669 ft | 298 kts | 339° |
| 2026-05-05 14:05 | 44.66041 | 25.83130 | 10302 ft | 300 kts | 308° |
| 2026-05-05 14:05 | 44.66958 | 25.80469 | 10650 ft | 314 kts | 283° |
| 2026-05-05 14:06 | 44.67452 | 25.77380 | 10780 ft | 335 kts | 282° |
| 2026-05-05 14:06 | 44.68138 | 25.74155 | 10959 ft | 352 kts | 290° |
| 2026-05-05 14:06 | 44.69091 | 25.70945 | 11407 ft | 359 kts | 294° |
| 2026-05-05 14:06 | 44.70180 | 25.67762 | 11928 ft | 363 kts | 296° |
| 2026-05-05 14:07 | 44.71320 | 25.64576 | 12439 ft | 366 kts | 296° |
| 2026-05-05 14:07 | 44.72438 | 25.61392 | 12926 ft | 370 kts | 295° |
| 2026-05-05 14:07 | 44.73536 | 25.58109 | 13403 ft | 373 kts | 294° |
| 2026-05-05 14:07 | 44.74625 | 25.54789 | 13865 ft | 376 kts | 294° |
| 2026-05-05 14:08 | 44.75719 | 25.51439 | 14311 ft | 378 kts | 294° |
| 2026-05-05 14:08 | 44.76820 | 25.48058 | 14742 ft | 381 kts | 294° |
| 2026-05-05 14:08 | 44.77927 | 25.44652 | 15152 ft | 384 kts | 294° |
| 2026-05-05 14:08 | 44.79042 | 25.41216 | 15548 ft | 387 kts | 294° |
| 2026-05-05 14:09 | 44.80161 | 25.37759 | 15926 ft | 390 kts | 294° |
| 2026-05-05 14:09 | 44.81283 | 25.34283 | 16287 ft | 392 kts | 294° |
| 2026-05-05 14:09 | 44.82402 | 25.30816 | 16630 ft | 394 kts | 294° |
| 2026-05-05 14:09 | 44.83538 | 25.27293 | 16963 ft | 397 kts | 294° |
| 2026-05-05 14:10 | 44.84684 | 25.23737 | 17287 ft | 399 kts | 294° |
| 2026-05-05 14:10 | 44.85834 | 25.20172 | 17591 ft | 401 kts | 294° |
| 2026-05-05 14:10 | 44.86992 | 25.16577 | 17889 ft | 403 kts | 294° |
| 2026-05-05 14:10 | 44.88152 | 25.12969 | 18172 ft | 405 kts | 294° |
| 2026-05-05 14:11 | 44.89317 | 25.09338 | 18441 ft | 407 kts | 294° |
| 2026-05-05 14:11 | 44.90484 | 25.05690 | 18700 ft | 409 kts | 294° |
| 2026-05-05 14:11 | 44.91654 | 25.02025 | 18946 ft | 411 kts | 294° |
| 2026-05-05 14:11 | 44.92827 | 24.98335 | 19180 ft | 413 kts | 294° |
| 2026-05-05 14:12 | 44.93989 | 24.94683 | 19400 ft | 414 kts | 294° |
| 2026-05-05 14:12 | 44.95172 | 24.90973 | 19615 ft | 416 kts | 294° |
| 2026-05-05 14:12 | 44.96363 | 24.87238 | 19821 ft | 417 kts | 294° |
| 2026-05-05 14:12 | 44.97554 | 24.83494 | 20018 ft | 419 kts | 294° |
| 2026-05-05 14:13 | 44.98745 | 24.79731 | 20210 ft | 420 kts | 294° |
| 2026-05-05 14:13 | 44.99937 | 24.75953 | 20396 ft | 422 kts | 294° |
| 2026-05-05 14:13 | 45.01133 | 24.72161 | 20579 ft | 423 kts | 294° |
| 2026-05-05 14:13 | 45.02329 | 24.68358 | 20755 ft | 424 kts | 294° |
| 2026-05-05 14:14 | 45.03533 | 24.64540 | 20920 ft | 426 kts | 294° |
| 2026-05-05 14:14 | 45.04740 | 24.60713 | 21076 ft | 427 kts | 294° |
| 2026-05-05 14:14 | 45.05931 | 24.56929 | 21226 ft | 428 kts | 294° |
| 2026-05-05 14:14 | 45.07142 | 24.53078 | 21374 ft | 429 kts | 294° |
| 2026-05-05 14:15 | 45.08351 | 24.49218 | 21512 ft | 430 kts | 293° |
| 2026-05-05 14:15 | 45.09561 | 24.45341 | 21641 ft | 431 kts | 293° |
| 2026-05-05 14:15 | 45.10773 | 24.41454 | 21766 ft | 432 kts | 293° |
| 2026-05-05 14:15 | 45.11985 | 24.37557 | 21892 ft | 433 kts | 293° |
| 2026-05-05 14:16 | 45.13197 | 24.33654 | 22017 ft | 434 kts | 293° |
| 2026-05-05 14:16 | 45.14412 | 24.29741 | 22142 ft | 434 kts | 293° |
| 2026-05-05 14:16 | 45.15629 | 24.25820 | 22266 ft | 435 kts | 293° |
| 2026-05-05 14:16 | 45.16846 | 24.21892 | 22391 ft | 436 kts | 293° |
| 2026-05-05 14:17 | 45.18064 | 24.17958 | 22516 ft | 436 kts | 293° |
| 2026-05-05 14:17 | 45.19281 | 24.14027 | 22641 ft | 436 kts | 293° |
| 2026-05-05 14:17 | 45.20487 | 24.10132 | 22764 ft | 437 kts | 293° |
| 2026-05-05 14:17 | 45.21703 | 24.06190 | 22889 ft | 437 kts | 293° |
| 2026-05-05 14:18 | 45.22918 | 24.02240 | 23013 ft | 437 kts | 293° |
| 2026-05-05 14:18 | 45.24129 | 23.98290 | 23137 ft | 437 kts | 293° |
| 2026-05-05 14:18 | 45.25340 | 23.94335 | 23262 ft | 437 kts | 293° |
| 2026-05-05 14:18 | 45.26551 | 23.90374 | 23386 ft | 437 kts | 293° |
| 2026-05-05 14:19 | 45.27759 | 23.86415 | 23511 ft | 437 kts | 293° |
| 2026-05-05 14:19 | 45.28967 | 23.82454 | 23635 ft | 437 kts | 293° |
| 2026-05-05 14:19 | 45.30174 | 23.78493 | 23759 ft | 437 kts | 293° |
| 2026-05-05 14:19 | 45.31359 | 23.74584 | 23882 ft | 437 kts | 293° |
| 2026-05-05 14:20 | 45.32558 | 23.70619 | 24007 ft | 437 kts | 293° |
| 2026-05-05 14:20 | 45.33758 | 23.66655 | 24132 ft | 436 kts | 293° |
| 2026-05-05 14:20 | 45.34960 | 23.62696 | 24256 ft | 436 kts | 293° |
| 2026-05-05 14:20 | 45.36162 | 23.58743 | 24381 ft | 436 kts | 293° |
| 2026-05-05 14:21 | 45.37363 | 23.54785 | 24505 ft | 435 kts | 293° |
| 2026-05-05 14:21 | 45.38557 | 23.50832 | 24629 ft | 435 kts | 293° |
| 2026-05-05 14:21 | 45.39746 | 23.46877 | 24755 ft | 434 kts | 292° |
| 2026-05-05 14:21 | 45.40928 | 23.42926 | 24879 ft | 434 kts | 292° |
| 2026-05-05 14:22 | 45.42109 | 23.38975 | 25003 ft | 433 kts | 292° |
| 2026-05-05 14:22 | 45.43287 | 23.35031 | 25128 ft | 433 kts | 292° |
| 2026-05-05 14:22 | 45.44446 | 23.31148 | 25251 ft | 432 kts | 292° |
| 2026-05-05 14:22 | 45.45621 | 23.27216 | 25376 ft | 431 kts | 292° |
| 2026-05-05 14:23 | 45.46785 | 23.23287 | 25501 ft | 430 kts | 292° |
| 2026-05-05 14:23 | 45.47941 | 23.19359 | 25625 ft | 429 kts | 292° |
| 2026-05-05 14:23 | 45.49100 | 23.15445 | 25749 ft | 429 kts | 292° |
| 2026-05-05 14:23 | 45.50259 | 23.11537 | 25874 ft | 428 kts | 292° |
| 2026-05-05 14:24 | 45.51420 | 23.07634 | 25998 ft | 427 kts | 292° |
| 2026-05-05 14:24 | 45.52578 | 23.03744 | 26123 ft | 426 kts | 292° |
| 2026-05-05 14:24 | 45.53732 | 22.99859 | 26247 ft | 425 kts | 292° |
| 2026-05-05 14:24 | 45.54881 | 22.95975 | 26372 ft | 424 kts | 292° |
| 2026-05-05 14:25 | 45.56020 | 22.92103 | 26497 ft | 423 kts | 292° |
| 2026-05-05 14:25 | 45.57140 | 22.88284 | 26620 ft | 423 kts | 292° |
| 2026-05-05 14:25 | 45.58275 | 22.84411 | 26745 ft | 422 kts | 292° |
| 2026-05-05 14:25 | 45.59406 | 22.80547 | 26870 ft | 421 kts | 292° |
| 2026-05-05 14:26 | 45.60534 | 22.76689 | 26995 ft | 421 kts | 292° |
| 2026-05-05 14:26 | 45.61657 | 22.72835 | 27121 ft | 420 kts | 292° |
| 2026-05-05 14:26 | 45.62775 | 22.68982 | 27245 ft | 419 kts | 292° |
| 2026-05-05 14:26 | 45.63893 | 22.65137 | 27370 ft | 419 kts | 292° |
| 2026-05-05 14:27 | 45.65009 | 22.61304 | 27494 ft | 418 kts | 292° |
| 2026-05-05 14:27 | 45.66124 | 22.57469 | 27620 ft | 417 kts | 292° |
| 2026-05-05 14:27 | 45.67222 | 22.53696 | 27742 ft | 416 kts | 292° |
| 2026-05-05 14:27 | 45.68331 | 22.49876 | 27867 ft | 416 kts | 292° |
| 2026-05-05 14:28 | 45.69433 | 22.46061 | 27992 ft | 415 kts | 292° |
| 2026-05-05 14:28 | 45.70531 | 22.42254 | 28117 ft | 414 kts | 292° |
| 2026-05-05 14:28 | 45.71629 | 22.38450 | 28242 ft | 413 kts | 292° |
| 2026-05-05 14:28 | 45.72720 | 22.34657 | 28367 ft | 412 kts | 292° |
| 2026-05-05 14:29 | 45.73806 | 22.30870 | 28491 ft | 411 kts | 292° |
| 2026-05-05 14:29 | 45.74888 | 22.27081 | 28616 ft | 410 kts | 292° |
| 2026-05-05 14:29 | 45.75967 | 22.23300 | 28741 ft | 410 kts | 292° |
| 2026-05-05 14:29 | 45.77043 | 22.19527 | 28866 ft | 409 kts | 292° |
| 2026-05-05 14:30 | 45.78117 | 22.15765 | 28990 ft | 408 kts | 292° |
| 2026-05-05 14:30 | 45.79175 | 22.12053 | 29114 ft | 407 kts | 292° |
| 2026-05-05 14:30 | 45.80246 | 22.08296 | 29238 ft | 407 kts | 292° |
| 2026-05-05 14:30 | 45.81311 | 22.04550 | 29363 ft | 406 kts | 291° |
| 2026-05-05 14:31 | 45.82375 | 22.00803 | 29488 ft | 405 kts | 291° |
| 2026-05-05 14:31 | 45.83436 | 21.97068 | 29613 ft | 404 kts | 292° |
| 2026-05-05 14:31 | 45.84495 | 21.93338 | 29738 ft | 404 kts | 291° |
| 2026-05-05 14:31 | 45.85550 | 21.89607 | 29863 ft | 403 kts | 291° |
| 2026-05-05 14:32 | 45.86598 | 21.85882 | 29988 ft | 402 kts | 291° |
| 2026-05-05 14:32 | 45.87644 | 21.82162 | 30112 ft | 402 kts | 291° |
| 2026-05-05 14:32 | 45.88686 | 21.78450 | 30237 ft | 401 kts | 291° |
| 2026-05-05 14:32 | 45.89725 | 21.74737 | 30362 ft | 400 kts | 291° |
| 2026-05-05 14:33 | 45.90762 | 21.71032 | 30487 ft | 400 kts | 291° |
| 2026-05-05 14:33 | 45.91784 | 21.67384 | 30610 ft | 399 kts | 291° |
| 2026-05-05 14:33 | 45.92815 | 21.63689 | 30735 ft | 398 kts | 291° |
| 2026-05-05 14:33 | 45.93842 | 21.60001 | 30860 ft | 397 kts | 291° |
| 2026-05-05 14:34 | 45.94865 | 21.56319 | 30985 ft | 396 kts | 291° |
| 2026-05-05 14:34 | 45.95889 | 21.52646 | 31109 ft | 396 kts | 291° |
| 2026-05-05 14:34 | 45.96910 | 21.48975 | 31234 ft | 395 kts | 291° |
| 2026-05-05 14:34 | 45.97925 | 21.45315 | 31359 ft | 394 kts | 291° |
| 2026-05-05 14:35 | 45.98937 | 21.41666 | 31483 ft | 393 kts | 291° |
| 2026-05-05 14:35 | 45.99947 | 21.38016 | 31608 ft | 392 kts | 291° |
| 2026-05-05 14:35 | 46.00951 | 21.34377 | 31733 ft | 391 kts | 291° |
| 2026-05-05 14:35 | 46.01937 | 21.30793 | 31856 ft | 390 kts | 291° |
| 2026-05-05 14:36 | 46.03944 | 21.23487 | 31672 ft | 400 kts | 291° |
| 2026-05-05 14:36 | 46.06004 | 21.15964 | 31536 ft | 408 kts | 291° |
| 2026-05-05 14:37 | 46.07051 | 21.12136 | 31413 ft | 413 kts | 291° |
| 2026-05-05 14:37 | 46.08111 | 21.08254 | 30827 ft | 423 kts | 291° |
| 2026-05-05 14:37 | 46.09211 | 21.04218 | 30227 ft | 440 kts | 291° |
| 2026-05-05 14:37 | 46.10321 | 21.00141 | 30020 ft | 446 kts | 291° |
| 2026-05-05 14:38 | 46.12580 | 20.91799 | 30007 ft | 447 kts | 291° |
| 2026-05-05 14:38 | 46.14799 | 20.83419 | 30009 ft | 448 kts | 290° |
| 2026-05-05 14:39 | 46.16906 | 20.74958 | 30009 ft | 449 kts | 289° |
| 2026-05-05 14:39 | 46.18985 | 20.66462 | 30009 ft | 449 kts | 289° |
| 2026-05-05 14:40 | 46.21071 | 20.58014 | 30009 ft | 450 kts | 289° |
| 2026-05-05 14:40 | 46.22122 | 20.53771 | 30110 ft | 448 kts | 289° |
| 2026-05-05 14:40 | 46.23168 | 20.49546 | 30233 ft | 445 kts | 289° |
| 2026-05-05 14:41 | 46.24208 | 20.45351 | 30355 ft | 443 kts | 289° |
| 2026-05-05 14:41 | 46.25239 | 20.41177 | 30479 ft | 440 kts | 289° |
| 2026-05-05 14:41 | 46.26267 | 20.37022 | 30602 ft | 438 kts | 289° |
| 2026-05-05 14:41 | 46.27285 | 20.32887 | 30725 ft | 435 kts | 289° |
| 2026-05-05 14:42 | 46.28279 | 20.28831 | 30847 ft | 433 kts | 289° |
| 2026-05-05 14:42 | 46.29278 | 20.24736 | 30971 ft | 431 kts | 289° |
| 2026-05-05 14:42 | 46.30269 | 20.20661 | 31095 ft | 429 kts | 289° |
| 2026-05-05 14:42 | 46.31250 | 20.16622 | 31218 ft | 426 kts | 289° |
| 2026-05-05 14:43 | 46.32231 | 20.12578 | 31344 ft | 428 kts | 289° |
| 2026-05-05 14:43 | 46.33215 | 20.08520 | 31468 ft | 426 kts | 289° |
| 2026-05-05 14:43 | 46.34190 | 20.04484 | 31593 ft | 424 kts | 289° |
| 2026-05-05 14:43 | 46.35163 | 20.00459 | 31717 ft | 422 kts | 289° |
| 2026-05-05 14:44 | 46.36068 | 19.96433 | 31844 ft | 420 kts | 286° |
| 2026-05-05 14:44 | 46.36850 | 19.92431 | 31979 ft | 418 kts | 284° |
| 2026-05-05 14:44 | 46.38244 | 19.84252 | 32009 ft | 420 kts | 283° |
| 2026-05-05 14:45 | 46.39605 | 19.76001 | 32009 ft | 422 kts | 283° |
| 2026-05-05 14:45 | 46.41027 | 19.67730 | 32009 ft | 424 kts | 284° |
| 2026-05-05 14:46 | 46.42483 | 19.59426 | 32009 ft | 426 kts | 284° |
| 2026-05-05 14:46 | 46.43937 | 19.51134 | 32009 ft | 428 kts | 284° |
| 2026-05-05 14:47 | 46.45385 | 19.42751 | 32009 ft | 430 kts | 283° |
| 2026-05-05 14:47 | 46.46833 | 19.34316 | 32009 ft | 431 kts | 283° |
| 2026-05-05 14:48 | 46.48275 | 19.25855 | 32009 ft | 433 kts | 283° |
| 2026-05-05 14:48 | 46.49713 | 19.17419 | 32009 ft | 434 kts | 283° |
| 2026-05-05 14:49 | 46.51157 | 19.08903 | 32078 ft | 433 kts | 283° |
| 2026-05-05 14:49 | 46.51873 | 19.04663 | 32202 ft | 431 kts | 283° |
| 2026-05-05 14:49 | 46.52584 | 19.00453 | 32326 ft | 428 kts | 283° |
| 2026-05-05 14:50 | 46.53291 | 18.96265 | 32449 ft | 426 kts | 283° |
| 2026-05-05 14:50 | 46.53990 | 18.92093 | 32573 ft | 423 kts | 283° |
| 2026-05-05 14:50 | 46.54680 | 18.87952 | 32697 ft | 421 kts | 283° |
| 2026-05-05 14:50 | 46.55355 | 18.83882 | 32820 ft | 419 kts | 283° |
| 2026-05-05 14:51 | 46.56037 | 18.79753 | 32277 ft | 429 kts | 283° |
| 2026-05-05 14:51 | 46.56740 | 18.75486 | 32017 ft | 436 kts | 283° |
| 2026-05-05 14:51 | 46.58158 | 18.66894 | 32009 ft | 438 kts | 283° |
| 2026-05-05 14:52 | 46.59575 | 18.58281 | 32009 ft | 439 kts | 283° |
| 2026-05-05 14:52 | 46.60988 | 18.49644 | 32009 ft | 440 kts | 283° |
| 2026-05-05 14:53 | 46.62391 | 18.41041 | 32009 ft | 441 kts | 283° |
| 2026-05-05 14:53 | 46.63798 | 18.32358 | 32009 ft | 441 kts | 283° |
| 2026-05-05 14:54 | 46.65198 | 18.23654 | 32009 ft | 442 kts | 283° |
| 2026-05-05 14:54 | 46.66591 | 18.14930 | 32009 ft | 443 kts | 283° |
| 2026-05-05 14:55 | 46.67987 | 18.06191 | 32009 ft | 443 kts | 283° |
| 2026-05-05 14:55 | 46.69367 | 17.97495 | 32009 ft | 444 kts | 282° |
| 2026-05-05 14:56 | 46.70744 | 17.88722 | 32009 ft | 445 kts | 282° |
| 2026-05-05 14:56 | 46.72123 | 17.79930 | 32009 ft | 445 kts | 282° |
| 2026-05-05 14:57 | 46.73503 | 17.71130 | 32009 ft | 446 kts | 282° |
| 2026-05-05 14:57 | 46.74858 | 17.62374 | 32009 ft | 446 kts | 282° |
| 2026-05-05 14:58 | 46.76216 | 17.53533 | 32009 ft | 447 kts | 282° |
| 2026-05-05 14:58 | 46.77573 | 17.44690 | 32009 ft | 447 kts | 282° |
| 2026-05-05 14:59 | 46.78923 | 17.35838 | 32009 ft | 447 kts | 282° |
| 2026-05-05 14:59 | 46.80266 | 17.26969 | 32009 ft | 448 kts | 282° |
| 2026-05-05 15:00 | 46.81375 | 17.19589 | 32009 ft | 448 kts | 282° |
| 2026-05-05 15:00 | 46.82929 | 17.09262 | 32009 ft | 448 kts | 282° |
| 2026-05-05 15:01 | 46.84258 | 17.00364 | 32009 ft | 449 kts | 282° |
| 2026-05-05 15:01 | 46.85574 | 16.91453 | 32009 ft | 449 kts | 281° |
| 2026-05-05 15:02 | 46.86878 | 16.82591 | 32009 ft | 449 kts | 283° |
| 2026-05-05 15:02 | 46.88786 | 16.73904 | 32009 ft | 449 kts | 289° |
| 2026-05-05 15:03 | 46.90827 | 16.65270 | 32009 ft | 449 kts | 289° |
| 2026-05-05 15:03 | 46.92874 | 16.56632 | 32009 ft | 450 kts | 289° |
| 2026-05-05 15:04 | 46.94903 | 16.48037 | 32009 ft | 450 kts | 288° |
| 2026-05-05 15:04 | 46.96926 | 16.39370 | 32009 ft | 450 kts | 288° |
| 2026-05-05 15:05 | 46.99945 | 16.26349 | 32009 ft | 450 kts | 288° |
| 2026-05-05 15:06 | 47.01958 | 16.17656 | 32009 ft | 451 kts | 288° |
| 2026-05-05 15:06 | 47.03950 | 16.09008 | 32009 ft | 451 kts | 288° |
| 2026-05-05 15:07 | 47.05944 | 16.00297 | 32009 ft | 451 kts | 288° |
| 2026-05-05 15:07 | 47.07937 | 15.91581 | 32009 ft | 451 kts | 288° |
| 2026-05-05 15:08 | 47.09887 | 15.83138 | 31999 ft | 449 kts | 288° |
| 2026-05-05 15:08 | 47.10969 | 15.78885 | 31796 ft | 441 kts | 287° |
| 2026-05-05 15:08 | 47.11962 | 15.74705 | 31653 ft | 437 kts | 286° |
| 2026-05-05 15:08 | 47.12911 | 15.70472 | 31761 ft | 437 kts | 285° |
| 2026-05-05 15:09 | 47.13838 | 15.66219 | 31768 ft | 438 kts | 285° |
| 2026-05-05 15:09 | 47.15690 | 15.57710 | 31768 ft | 437 kts | 285° |
| 2026-05-05 15:10 | 47.17577 | 15.49241 | 31758 ft | 435 kts | 285° |
| 2026-05-05 15:10 | 47.19479 | 15.40766 | 31752 ft | 438 kts | 285° |
| 2026-05-05 15:11 | 47.21370 | 15.32289 | 31751 ft | 440 kts | 285° |
| 2026-05-05 15:11 | 47.23258 | 15.23736 | 31752 ft | 440 kts | 285° |
| 2026-05-05 15:12 | 47.25140 | 15.15186 | 31752 ft | 440 kts | 285° |
| 2026-05-05 15:12 | 47.27015 | 15.06626 | 31749 ft | 439 kts | 285° |
| 2026-05-05 15:13 | 47.28879 | 14.98103 | 31741 ft | 440 kts | 285° |
| 2026-05-05 15:13 | 47.30745 | 14.89521 | 31743 ft | 439 kts | 284° |
| 2026-05-05 15:14 | 47.32599 | 14.80939 | 31743 ft | 439 kts | 284° |
| 2026-05-05 15:14 | 47.34449 | 14.72342 | 31740 ft | 441 kts | 285° |
| 2026-05-05 15:15 | 47.36292 | 14.63788 | 31734 ft | 440 kts | 285° |
| 2026-05-05 15:15 | 47.38138 | 14.55188 | 31732 ft | 439 kts | 284° |
| 2026-05-05 15:16 | 47.39972 | 14.46573 | 31732 ft | 440 kts | 284° |
| 2026-05-05 15:16 | 47.41800 | 14.37949 | 31732 ft | 440 kts | 284° |
| 2026-05-05 15:16 | 47.42952 | 14.33753 | 31728 ft | 444 kts | 297° |
| 2026-05-05 15:17 | 47.44589 | 14.29864 | 31733 ft | 446 kts | 300° |
| 2026-05-05 15:17 | 47.47940 | 14.22198 | 31724 ft | 447 kts | 300° |
| 2026-05-05 15:18 | 47.51201 | 14.14378 | 31719 ft | 444 kts | 290° |
| 2026-05-05 15:18 | 47.53267 | 14.05812 | 31719 ft | 442 kts | 286° |
| 2026-05-05 15:19 | 47.55110 | 13.97150 | 31721 ft | 441 kts | 283° |
| 2026-05-05 15:19 | 47.56752 | 13.88476 | 31705 ft | 441 kts | 283° |
| 2026-05-05 15:20 | 47.58411 | 13.79733 | 31703 ft | 441 kts | 283° |
| 2026-05-05 15:20 | 47.60065 | 13.70998 | 31705 ft | 440 kts | 283° |
| 2026-05-05 15:21 | 47.61719 | 13.62254 | 31705 ft | 441 kts | 283° |
| 2026-05-05 15:21 | 47.63369 | 13.53507 | 31704 ft | 441 kts | 283° |
| 2026-05-05 15:22 | 47.65011 | 13.44799 | 31683 ft | 442 kts | 283° |
| 2026-05-05 15:22 | 47.66677 | 13.36028 | 31686 ft | 442 kts | 283° |
| 2026-05-05 15:23 | 47.68211 | 13.27217 | 31685 ft | 441 kts | 280° |
| 2026-05-05 15:23 | 47.69554 | 13.18346 | 31689 ft | 440 kts | 279° |
| 2026-05-05 15:24 | 47.70893 | 13.09528 | 31671 ft | 441 kts | 279° |
| 2026-05-05 15:24 | 47.72279 | 13.00663 | 31673 ft | 441 kts | 279° |
| 2026-05-05 15:25 | 47.73670 | 12.91779 | 31671 ft | 441 kts | 279° |
| 2026-05-05 15:25 | 47.75061 | 12.82917 | 31672 ft | 440 kts | 279° |
| 2026-05-05 15:26 | 47.76442 | 12.74114 | 31672 ft | 440 kts | 279° |
| 2026-05-05 15:26 | 47.77865 | 12.65232 | 31650 ft | 443 kts | 279° |
| 2026-05-05 15:27 | 47.79319 | 12.56314 | 31650 ft | 444 kts | 279° |
| 2026-05-05 15:27 | 47.80772 | 12.47399 | 31650 ft | 444 kts | 279° |
| 2026-05-05 15:28 | 47.82224 | 12.38481 | 31651 ft | 444 kts | 279° |
| 2026-05-05 15:28 | 47.83688 | 12.29621 | 31652 ft | 444 kts | 280° |
| 2026-05-05 15:29 | 47.85295 | 12.20734 | 31653 ft | 445 kts | 282° |
| 2026-05-05 15:29 | 47.87004 | 12.11882 | 31653 ft | 445 kts | 282° |
| 2026-05-05 15:30 | 47.88708 | 12.03019 | 31650 ft | 445 kts | 282° |
| 2026-05-05 15:30 | 47.90365 | 11.94210 | 31654 ft | 444 kts | 281° |
| 2026-05-05 15:31 | 47.92006 | 11.85319 | 31628 ft | 446 kts | 281° |
| 2026-05-05 15:31 | 47.93654 | 11.76403 | 31468 ft | 444 kts | 281° |
| 2026-05-05 15:31 | 47.94477 | 11.71964 | 31216 ft | 444 kts | 281° |
| 2026-05-05 15:32 | 47.95298 | 11.67526 | 30967 ft | 445 kts | 281° |
| 2026-05-05 15:32 | 47.96118 | 11.63085 | 30716 ft | 444 kts | 281° |
| 2026-05-05 15:32 | 47.96923 | 11.58697 | 30470 ft | 444 kts | 281° |
| 2026-05-05 15:32 | 47.97734 | 11.54256 | 30219 ft | 443 kts | 281° |
| 2026-05-05 15:33 | 47.98541 | 11.49823 | 29969 ft | 443 kts | 281° |
| 2026-05-05 15:33 | 47.99351 | 11.45372 | 29717 ft | 443 kts | 281° |
| 2026-05-05 15:33 | 48.00156 | 11.40935 | 29467 ft | 443 kts | 281° |
| 2026-05-05 15:33 | 48.00958 | 11.36508 | 29217 ft | 441 kts | 281° |
| 2026-05-05 15:34 | 48.01756 | 11.32103 | 28967 ft | 439 kts | 281° |
| 2026-05-05 15:34 | 48.02541 | 11.27764 | 28719 ft | 437 kts | 281° |
| 2026-05-05 15:34 | 48.03328 | 11.23395 | 28470 ft | 435 kts | 281° |
| 2026-05-05 15:34 | 48.04110 | 11.19048 | 28220 ft | 433 kts | 281° |
| 2026-05-05 15:35 | 48.04887 | 11.14713 | 27970 ft | 431 kts | 280° |
| 2026-05-05 15:35 | 48.05659 | 11.10396 | 27719 ft | 429 kts | 281° |
| 2026-05-05 15:35 | 48.06425 | 11.06095 | 27469 ft | 427 kts | 280° |
| 2026-05-05 15:35 | 48.07183 | 11.01812 | 27219 ft | 426 kts | 280° |
| 2026-05-05 15:36 | 48.07939 | 10.97543 | 26968 ft | 424 kts | 281° |
| 2026-05-05 15:36 | 48.08693 | 10.93294 | 26718 ft | 422 kts | 281° |
| 2026-05-05 15:36 | 48.09434 | 10.89115 | 26471 ft | 420 kts | 281° |
| 2026-05-05 15:36 | 48.10177 | 10.84900 | 26221 ft | 418 kts | 281° |
| 2026-05-05 15:37 | 48.10914 | 10.80705 | 25971 ft | 417 kts | 281° |
| 2026-05-05 15:37 | 48.11648 | 10.76517 | 25721 ft | 415 kts | 280° |
| 2026-05-05 15:37 | 48.12377 | 10.72345 | 25470 ft | 413 kts | 280° |
| 2026-05-05 15:37 | 48.13102 | 10.68191 | 25220 ft | 413 kts | 281° |
| 2026-05-05 15:38 | 48.13828 | 10.64037 | 24969 ft | 411 kts | 281° |
| 2026-05-05 15:38 | 48.14547 | 10.59904 | 24719 ft | 410 kts | 281° |
| 2026-05-05 15:38 | 48.15263 | 10.55778 | 24468 ft | 408 kts | 281° |
| 2026-05-05 15:38 | 48.15962 | 10.51732 | 24222 ft | 407 kts | 281° |
| 2026-05-05 15:39 | 48.16727 | 10.47653 | 23968 ft | 407 kts | 288° |
| 2026-05-05 15:39 | 48.18127 | 10.43980 | 23638 ft | 408 kts | 307° |
| 2026-05-05 15:39 | 48.20102 | 10.40932 | 23102 ft | 407 kts | 314° |
| 2026-05-05 15:39 | 48.22159 | 10.38025 | 22584 ft | 404 kts | 314° |
| 2026-05-05 15:40 | 48.24204 | 10.35153 | 22090 ft | 401 kts | 314° |
| 2026-05-05 15:40 | 48.26231 | 10.32308 | 21609 ft | 397 kts | 314° |
| 2026-05-05 15:40 | 48.28241 | 10.29481 | 21137 ft | 394 kts | 314° |
| 2026-05-05 15:40 | 48.30230 | 10.26687 | 20673 ft | 390 kts | 314° |
| 2026-05-05 15:41 | 48.32205 | 10.23917 | 20214 ft | 387 kts | 314° |
| 2026-05-05 15:41 | 48.34140 | 10.21207 | 19767 ft | 384 kts | 314° |
| 2026-05-05 15:41 | 48.36091 | 10.18478 | 19312 ft | 381 kts | 314° |
| 2026-05-05 15:41 | 48.38024 | 10.15780 | 18861 ft | 378 kts | 314° |
| 2026-05-05 15:42 | 48.39946 | 10.13102 | 18412 ft | 375 kts | 314° |
| 2026-05-05 15:42 | 48.41853 | 10.10451 | 17966 ft | 372 kts | 314° |
| 2026-05-05 15:42 | 48.43747 | 10.07821 | 17527 ft | 369 kts | 314° |
| 2026-05-05 15:42 | 48.45628 | 10.05208 | 17101 ft | 366 kts | 314° |
| 2026-05-05 15:43 | 48.47488 | 10.02623 | 16703 ft | 363 kts | 314° |
| 2026-05-05 15:43 | 48.49333 | 10.00057 | 16293 ft | 359 kts | 314° |
| 2026-05-05 15:43 | 48.51164 | 9.97509 | 15869 ft | 356 kts | 314° |
| 2026-05-05 15:43 | 48.52977 | 9.94974 | 15318 ft | 355 kts | 314° |
| 2026-05-05 15:44 | 48.54745 | 9.92496 | 14697 ft | 349 kts | 314° |
| 2026-05-05 15:44 | 48.56513 | 9.90015 | 14070 ft | 345 kts | 314° |
| 2026-05-05 15:44 | 48.58260 | 9.87561 | 13444 ft | 341 kts | 314° |
| 2026-05-05 15:44 | 48.59987 | 9.85140 | 12818 ft | 337 kts | 314° |
| 2026-05-05 15:45 | 48.61713 | 9.82727 | 12197 ft | 339 kts | 314° |
| 2026-05-05 15:45 | 48.63442 | 9.80333 | 11560 ft | 334 kts | 314° |
| 2026-05-05 15:45 | 48.65144 | 9.78012 | 10930 ft | 325 kts | 314° |
| 2026-05-05 15:45 | 48.66809 | 9.75764 | 10302 ft | 317 kts | 314° |
| 2026-05-05 15:46 | 48.68335 | 9.73459 | 9680 ft | 304 kts | 301° |
| 2026-05-05 15:46 | 48.69414 | 9.70776 | 9054 ft | 294 kts | 295° |
| 2026-05-05 15:46 | 48.70388 | 9.68085 | 8428 ft | 289 kts | 294° |
| 2026-05-05 15:46 | 48.71323 | 9.65452 | 7807 ft | 285 kts | 294° |
| 2026-05-05 15:47 | 48.72243 | 9.62824 | 7179 ft | 280 kts | 294° |
| 2026-05-05 15:47 | 48.72854 | 9.61064 | 6755 ft | 277 kts | 293° |
| 2026-05-05 15:47 | 48.73760 | 9.57517 | 5923 ft | 270 kts | 284° |
| 2026-05-05 15:47 | 48.74317 | 9.54821 | 5299 ft | 266 kts | 282° |
| 2026-05-05 15:48 | 48.74500 | 9.52128 | 4884 ft | 250 kts | 263° |
| 2026-05-05 15:48 | 48.74140 | 9.49640 | 4562 ft | 237 kts | 252° |
| 2026-05-05 15:48 | 48.73701 | 9.47286 | 4250 ft | 227 kts | 253° |
| 2026-05-05 15:48 | 48.73281 | 9.45030 | 3954 ft | 218 kts | 253° |
| 2026-05-05 15:49 | 48.72875 | 9.42857 | 3668 ft | 211 kts | 253° |
| 2026-05-05 15:49 | 48.72491 | 9.40805 | 3425 ft | 199 kts | 253° |
| 2026-05-05 15:49 | 48.72127 | 9.38866 | 3162 ft | 183 kts | 253° |
| 2026-05-05 15:49 | 48.71796 | 9.37101 | 2926 ft | 167 kts | 254° |
| 2026-05-05 15:50 | 48.71486 | 9.35447 | 2704 ft | 161 kts | 255° |
| 2026-05-05 15:50 | 48.71184 | 9.33837 | 2478 ft | 157 kts | 255° |
| 2026-05-05 15:50 | 48.70892 | 9.32288 | 2275 ft | 149 kts | 254° |
| 2026-05-05 15:50 | 48.70612 | 9.30803 | 2081 ft | 145 kts | 254° |
| 2026-05-05 15:51 | 48.70335 | 9.29335 | 1895 ft | 146 kts | 255° |
| 2026-05-05 15:51 | 48.70056 | 9.27848 | 1705 ft | 147 kts | 256° |
| 2026-05-05 15:51 | 48.69776 | 9.26353 | 1495 ft | 151 kts | 254° |
| 2026-05-05 15:51 | 48.69486 | 9.24828 | 1332 ft | 151 kts | 254° |
| 2026-05-05 15:52 | 48.69203 | 9.23324 | 1211 ft | 137 kts | 255° |
| 2026-05-05 15:52 | 48.69025 | 9.22353 | 1231 ft | 52 kts | 254° |
| 2026-05-05 15:52 | 48.68945 | 9.21898 | 1243 ft | 42 kts | 264° |
| 2026-05-05 15:52 | 48.68979 | 9.21524 | 1254 ft | 17 kts | 285° |
| 2026-05-05 15:53 | 48.68988 | 9.21478 | 1256 ft | 0 kts | 286° |
| 2026-05-05 15:53 | 48.68988 | 9.21477 | 1256 ft | 1 kts | 286° |
| 2026-05-05 15:53 | 48.68991 | 9.21464 | 1256 ft | 6 kts | 286° |
| 2026-05-05 15:54 | 48.69003 | 9.21386 | 1259 ft | 5 kts | 276° |
| 2026-05-05 15:54 | 48.69001 | 9.21343 | 1260 ft | 7 kts | 261° |
| 2026-05-05 15:54 | 48.68977 | 9.21214 | 1263 ft | 14 kts | 253° |
| 2026-05-05 15:54 | 48.68951 | 9.21082 | 1266 ft | 12 kts | 254° |
| 2026-05-05 15:55 | 48.68929 | 9.20966 | 1269 ft | 10 kts | 254° |
| 2026-05-05 15:55 | 48.68914 | 9.20882 | 1271 ft | 7 kts | 254° |
| 2026-05-05 15:55 | 48.68893 | 9.20773 | 1273 ft | 14 kts | 254° |
| 2026-05-05 15:55 | 48.68864 | 9.20622 | 1277 ft | 15 kts | 253° |
| 2026-05-05 15:56 | 48.68838 | 9.20480 | 1280 ft | 14 kts | 254° |
| 2026-05-05 15:56 | 48.68813 | 9.20349 | 1283 ft | 12 kts | 254° |
| 2026-05-05 15:56 | 48.68792 | 9.20239 | 1286 ft | 10 kts | 253° |
| 2026-05-05 15:56 | 48.68777 | 9.20163 | 1287 ft | 6 kts | 253° |
| 2026-05-05 15:57 | 48.68764 | 9.20094 | 1289 ft | 8 kts | 253° |
| 2026-05-05 15:57 | 48.68760 | 9.19986 | 1292 ft | 10 kts | 280° |
| 2026-05-05 15:57 | 48.68764 | 9.19893 | 1295 ft | 11 kts | 265° |
| 2026-05-05 15:57 | 48.68742 | 9.19767 | 1299 ft | 13 kts | 254° |
| 2026-05-05 15:58 | 48.68719 | 9.19649 | 1302 ft | 10 kts | 253° |
| 2026-05-05 15:58 | 48.68701 | 9.19556 | 1305 ft | 10 kts | 254° |
| 2026-05-05 15:58 | 48.68680 | 9.19443 | 1308 ft | 10 kts | 254° |
| 2026-05-05 15:58 | 48.68666 | 9.19365 | 1310 ft | 5 kts | 254° |
| 2026-05-05 15:59 | 48.68659 | 9.19332 | 1311 ft | 3 kts | 254° |
| 2026-05-05 15:59 | 48.68647 | 9.19267 | 1312 ft | 8 kts | 253° |
| 2026-05-05 15:59 | 48.68645 | 9.19206 | 1314 ft | 6 kts | 285° |
| 2026-05-05 15:59 | 48.68691 | 9.19155 | 1317 ft | 8 kts | 342° |
| 2026-05-05 16:00 | 48.68745 | 9.19148 | 1318 ft | 11 kts | 16° |
| 2026-05-05 16:00 | 48.68781 | 9.19241 | 1315 ft | 11 kts | 73° |
| 2026-05-05 16:00 | 48.68801 | 9.19350 | 1314 ft | 7 kts | 74° |
| 2026-05-05 16:00 | 48.68831 | 9.19380 | 1314 ft | 4 kts | 0° |
| 2026-05-05 16:01 | 48.68855 | 9.19372 | 1315 ft | 3 kts | 344° |
| 2026-05-05 16:01 | 48.68869 | 9.19366 | 1315 ft | 2 kts | 343° |
| 2026-05-05 16:01 | 48.68880 | 9.19361 | 1315 ft | 2 kts | 343° |
| 2026-05-05 16:01 | 48.68884 | 9.19359 | 1315 ft | 0 kts | 344° |